Flagstaff, AZ (86002)

4:33 AM MST on July 24, 2016 (GMT -0700)
MesoWest | | Change Station

Elev 9729 ft 35.34 °N, 111.65 °W | Updated 1 day ago

Partly Cloudy
Partly Cloudy
74 °F
Feels Like 74 °F
N
8
Wind Variable Wind from WSW
Gusts mph

Today
High -- | Low -- °F
--% Chance of Precip.
Yesterday
High -- | Low -- °F
Precip. -- in
Pressure 29.92 in
Visibility 10.0 miles
Clouds Clear
Dew Point 50 °F
Humidity 42%
Rainfall in
Snow Depth Not available.
5:29 AM 7:35 PM
Waning Gibbous, 77% visible
METAR KFLG 241057Z AUTO 00000KT 10SM CLR 13/08 A3027 RMK AO2 SLP131 T01280083 TSNO
Pressure 29.92 in
Visibility 10.0 miles
Clouds Clear
Dew Point 50 °F
Humidity 42%
Rainfall in
Snow Depth Not available.
5:29 AM 7:35 PM
Waning Gibbous, 77% visible
METAR KFLG 241057Z AUTO 00000KT 10SM CLR 13/08 A3027 RMK AO2 SLP131 T01280083 TSNO

10-Day Weather Forecast

Almanac

Astronomy

Jul. 24, 2016 Rise Set
Actual Time
Civil Twilight
Nautical Twilight
Astronomical Twilight
Moon
Length of Visible Light
Length of Day
Tomorrow will be .
, % of the Moon is Illuminated

Today's Extremes

State Highs State Lows

Community

WunderPhotos

Upload Photos

1,927,048 photos uploaded!

WunderBlog® & News

Nearby

Air Quality

  Air Quality AQ Index Pollutant
Not available.

Snow Depth

Station Depth Elevation

Earthquake Activity

City Distance Mag. Time & Date
Minimum magnitude displayed is 2.5.

Coastal Water Temperatures

Place Temperature

Stations

Nearby Weather Stations

Station Location Temp. Windchill Dew Point Humidity Wind Precip. Elev Updated Type
                   

Watches & Warnings

There are currently no watches in effect.